Time;durP1;ratioP1;P1;durP2;ratioP2;P2;SDS_P1;SDS_P2;PMS_P1;PMS_P2;Temp;Humidity;BMP_temperature;BMP_pressure;BME280_temperature;BME280_humidity;BME280_pressure;Samples;Min_cycle;Max_cycle;Signal;HPM_P1;HPM_P2
2023/08/04 00:01:56;;;;;;;13.20;4.85;;;14.20;99.90;;;;;;4975985;28;91340;-80
2023/08/04 00:04:21;;;;;;;17.08;4.43;;;14.20;99.90;;;;;;4975135;28;88437;-80
2023/08/04 00:06:47;;;;;;;12.07;3.55;;;14.20;99.90;;;;;;4978340;28;87829;-80
2023/08/04 00:09:13;;;;;;;15.82;4.20;;;14.20;99.90;;;;;;4977270;28;88395;-80
2023/08/04 00:11:39;;;;;;;10.45;4.28;;;14.20;99.90;;;;;;4976826;28;88212;-80
2023/08/04 00:14:04;;;;;;;16.30;4.38;;;14.20;99.90;;;;;;4976853;28;87492;-80
2023/08/04 00:16:30;;;;;;;12.35;3.78;;;14.10;99.90;;;;;;4976072;28;89209;-80
2023/08/04 00:18:55;;;;;;;10.75;4.05;;;14.20;99.90;;;;;;4974934;28;90182;-79
2023/08/04 00:21:21;;;;;;;14.48;3.30;;;14.20;99.90;;;;;;4978024;28;88338;-80
2023/08/04 00:23:47;;;;;;;10.98;3.22;;;14.10;99.90;;;;;;4975610;28;87939;-79
2023/08/04 00:26:12;;;;;;;12.20;3.40;;;14.20;99.90;;;;;;4975231;28;89989;-79
2023/08/04 00:28:38;;;;;;;12.73;3.22;;;14.10;99.90;;;;;;4976080;28;89803;-79
2023/08/04 00:31:04;;;;;;;10.52;3.20;;;14.10;99.90;;;;;;4975744;28;92502;-79
2023/08/04 00:33:29;;;;;;;8.35;2.97;;;14.10;99.90;;;;;;4975674;28;87350;-80
2023/08/04 00:35:55;;;;;;;15.95;3.28;;;14.10;99.90;;;;;;4975084;28;91006;-79
2023/08/04 00:38:20;;;;;;;12.68;3.65;;;14.10;99.90;;;;;;4974969;28;88654;-80
2023/08/04 00:40:46;;;;;;;7.55;3.22;;;14.10;99.90;;;;;;4976167;28;88637;-80
2023/08/04 00:43:12;;;;;;;8.38;3.30;;;14.00;99.90;;;;;;4975094;28;87720;-79
2023/08/04 00:45:38;;;;;;;8.00;2.70;;;14.00;99.90;;;;;;4975966;28;90069;-80
2023/08/04 00:48:04;;;;;;;10.25;3.00;;;13.90;99.90;;;;;;4975443;28;87927;-80
2023/08/04 00:50:31;;;;;;;9.75;3.70;;;13.90;99.90;;;;;;4975123;28;91583;-80
2023/08/04 00:52:58;;;;;;;10.13;3.35;;;13.90;99.90;;;;;;4975766;28;88049;-79
2023/08/04 00:55:26;;;;;;;9.40;3.20;;;13.80;99.90;;;;;;4975732;28;87599;-79
2023/08/04 00:57:53;;;;;;;9.95;3.28;;;13.80;99.90;;;;;;4977037;28;88460;-79
2023/08/04 01:00:19;;;;;;;9.48;3.40;;;13.80;99.90;;;;;;4974772;28;95672;-80
2023/08/04 01:02:45;;;;;;;7.78;3.58;;;13.70;99.90;;;;;;4976277;28;87806;-79
2023/08/04 01:05:11;;;;;;;12.52;3.80;;;13.70;99.90;;;;;;4973397;28;89796;-79
2023/08/04 01:07:49;;;;;;;10.13;4.32;;;13.60;99.90;;;;;;4975633;28;88554;-79
2023/08/04 01:10:18;;;;;;;9.82;3.97;;;13.60;99.90;;;;;;4976426;28;88038;-79
2023/08/04 01:12:47;;;;;;;6.32;3.55;;;13.60;99.90;;;;;;4977311;28;87315;-79
2023/08/04 01:15:14;;;;;;;9.00;4.07;;;13.50;99.90;;;;;;4974740;28;89206;-80
2023/08/04 01:17:40;;;;;;;19.45;5.30;;;13.50;99.90;;;;;;4974939;28;89594;-80
2023/08/04 01:20:06;;;;;;;10.10;4.00;;;13.50;99.90;;;;;;4973036;28;91014;-80
2023/08/04 01:22:36;;;;;;;15.10;4.55;;;13.40;99.90;;;;;;4975233;28;87782;-80
2023/08/04 01:25:03;;;;;;;15.88;4.53;;;13.40;99.90;;;;;;4973723;28;90924;-79
2023/08/04 01:27:43;;;;;;;11.07;4.50;;;13.40;99.90;;;;;;4991758;28;91684;-80
2023/08/04 01:30:23;;;;;;;11.55;4.32;;;13.40;99.90;;;;;;4976049;28;90236;-80
2023/08/04 01:32:49;;;;;;;9.15;3.83;;;13.30;99.90;;;;;;4977879;28;87624;-80
2023/08/04 01:35:16;;;;;;;17.80;4.50;;;13.30;99.90;;;;;;4979232;28;87945;-79
2023/08/04 01:37:43;;;;;;;11.50;4.00;;;13.30;99.90;;;;;;4976889;28;91616;-79
2023/08/04 01:40:10;;;;;;;11.18;3.83;;;13.30;99.90;;;;;;4978692;28;87817;-79
2023/08/04 01:42:35;;;;;;;9.98;3.72;;;13.20;99.90;;;;;;4977630;28;88512;-79
2023/08/04 01:45:01;;;;;;;9.07;4.20;;;13.20;99.90;;;;;;4979244;28;87890;-79
2023/08/04 01:47:27;;;;;;;7.95;3.95;;;13.10;99.90;;;;;;4978599;28;89560;-80
2023/08/04 01:49:52;;;;;;;10.95;4.50;;;13.10;99.90;;;;;;4978308;28;91923;-80
2023/08/04 01:52:18;;;;;;;6.38;3.42;;;13.10;99.90;;;;;;4978583;28;87106;-80
2023/08/04 01:54:44;;;;;;;10.13;4.15;;;13.10;99.90;;;;;;4978987;28;89264;-79
2023/08/04 01:57:09;;;;;;;11.85;4.50;;;13.00;99.90;;;;;;4979514;28;88160;-80
2023/08/04 01:59:35;;;;;;;8.50;4.47;;;13.00;99.90;;;;;;4977870;28;90065;-80
2023/08/04 02:02:01;;;;;;;14.18;5.57;;;13.00;99.90;;;;;;4976452;28;87645;-79
2023/08/04 02:04:26;;;;;;;11.88;5.22;;;12.90;99.90;;;;;;4978581;28;87616;-79
2023/08/04 02:06:52;;;;;;;21.33;4.63;;;12.90;99.90;;;;;;4976891;28;92373;-79
2023/08/04 02:09:18;;;;;;;14.35;5.40;;;12.90;99.90;;;;;;4979382;28;88133;-79
2023/08/04 02:11:43;;;;;;;10.90;5.22;;;12.90;99.90;;;;;;4978344;28;88758;-79
2023/08/04 02:14:09;;;;;;;11.45;5.28;;;12.80;99.90;;;;;;4976760;28;90610;-79
2023/08/04 02:16:35;;;;;;;19.13;6.95;;;12.80;99.90;;;;;;4978459;28;89108;-79
2023/08/04 02:19:09;;;;;;;14.85;6.35;;;12.80;99.90;;;;;;4976195;28;90194;-79
2023/08/04 02:21:35;;;;;;;16.40;6.68;;;12.80;99.90;;;;;;4979911;28;87494;-80
2023/08/04 02:24:02;;;;;;;13.98;6.03;;;12.80;99.90;;;;;;4977584;28;89435;-79
2023/08/04 02:26:27;;;;;;;15.35;6.10;;;12.80;99.90;;;;;;4977365;28;91459;-79
2023/08/04 02:28:54;;;;;;;19.05;6.18;;;12.70;99.90;;;;;;4977896;28;89090;-79
2023/08/04 02:31:22;;;;;;;19.45;6.53;;;12.70;99.90;;;;;;4975951;28;88557;-79
2023/08/04 02:33:47;;;;;;;18.58;7.30;;;12.70;99.90;;;;;;4977310;28;89457;-79
2023/08/04 02:36:14;;;;;;;16.33;6.00;;;12.70;99.90;;;;;;4976881;28;87664;-79
2023/08/04 02:38:40;;;;;;;11.35;6.28;;;12.70;99.90;;;;;;4976264;28;91411;-79
2023/08/04 02:41:09;;;;;;;15.52;6.63;;;12.70;99.90;;;;;;4975989;28;88435;-79
2023/08/04 02:43:35;;;;;;;18.02;6.53;;;12.70;99.90;;;;;;4992286;28;90624;-79
2023/08/04 02:46:01;;;;;;;10.98;6.38;;;12.70;99.90;;;;;;4977380;28;88431;-79
2023/08/04 02:48:26;;;;;;;17.00;7.30;;;12.60;99.90;;;;;;4978438;28;88087;-79
2023/08/04 02:51:03;;;;;;;18.33;8.10;;;12.60;99.90;;;;;;4976126;28;87404;-79
2023/08/04 02:53:29;;;;;;;21.38;7.57;;;12.60;99.90;;;;;;4976159;28;90526;-79
2023/08/04 02:55:55;;;;;;;20.00;7.68;;;12.60;99.90;;;;;;4975826;28;92294;-80
2023/08/04 02:58:23;;;;;;;18.23;8.13;;;12.60;99.90;;;;;;4993569;28;91692;-80
2023/08/04 03:00:49;;;;;;;23.25;7.53;;;12.60;99.90;;;;;;4978355;28;87367;-79
2023/08/04 03:03:15;;;;;;;19.70;8.07;;;12.60;99.90;;;;;;4977648;28;89163;-80
2023/08/04 03:05:41;;;;;;;22.13;7.95;;;12.60;99.90;;;;;;4977803;28;90851;-79
2023/08/04 03:08:06;;;;;;;13.02;6.88;;;12.60;99.90;;;;;;4978234;28;90509;-80
2023/08/04 03:10:32;;;;;;;17.65;7.45;;;12.60;99.90;;;;;;4977987;28;87651;-80
2023/08/04 03:12:58;;;;;;;13.93;6.95;;;12.60;99.90;;;;;;4980650;28;87349;-79
2023/08/04 03:15:23;;;;;;;18.67;8.50;;;12.60;99.90;;;;;;4981479;28;88314;-80
2023/08/04 03:17:50;;;;;;;23.42;9.27;;;12.60;99.90;;;;;;4980182;28;88467;-80
2023/08/04 03:20:16;;;;;;;19.52;8.13;;;12.60;99.90;;;;;;4978065;28;88146;-79
2023/08/04 03:22:42;;;;;;;14.07;7.47;;;12.60;99.90;;;;;;4978342;28;90524;-79
2023/08/04 03:25:09;;;;;;;14.85;6.80;;;12.60;99.90;;;;;;4978146;28;89951;-80
2023/08/04 03:27:36;;;;;;;12.35;7.05;;;12.70;99.90;;;;;;4977627;28;90163;-80
2023/08/04 03:30:02;;;;;;;12.10;7.32;;;12.70;99.90;;;;;;4978168;28;87517;-80
2023/08/04 03:32:28;;;;;;;18.20;8.23;;;12.70;99.90;;;;;;4978151;28;89539;-79
2023/08/04 03:34:54;;;;;;;21.55;8.30;;;12.80;99.90;;;;;;4979298;28;91579;-79
2023/08/04 03:37:19;;;;;;;22.35;8.38;;;12.80;99.90;;;;;;4994384;28;91572;-79
2023/08/04 03:39:45;;;;;;;22.92;8.98;;;12.80;99.90;;;;;;4975658;28;87661;-79
2023/08/04 03:42:11;;;;;;;20.20;9.38;;;12.80;99.90;;;;;;4968908;28;89065;-79
2023/08/04 03:44:36;;;;;;;19.17;8.50;;;12.90;99.90;;;;;;4969859;28;92245;-79
2023/08/04 03:47:02;;;;;;;23.00;9.57;;;12.90;99.90;;;;;;4972874;28;88492;-79
2023/08/04 03:49:28;;;;;;;16.05;7.80;;;12.90;99.90;;;;;;4975510;28;87699;-80
2023/08/04 03:51:56;;;;;;;17.42;9.10;;;13.00;99.90;;;;;;4982190;28;89744;-81
2023/08/04 03:54:22;;;;;;;22.02;8.48;;;13.00;99.90;;;;;;4985261;28;90847;-81
2023/08/04 03:56:48;;;;;;;17.92;8.32;;;13.00;99.90;;;;;;4982309;28;89872;-80
2023/08/04 03:59:14;;;;;;;25.25;9.27;;;13.00;99.90;;;;;;4982253;28;87645;-81
2023/08/04 04:01:40;;;;;;;15.65;8.18;;;13.10;99.90;;;;;;4989507;28;90065;-81
2023/08/04 04:04:42;;;;;;;;;;;;;;;;;;;;;
2023/08/04 04:07:16;;;;;;;12.73;7.45;;;13.10;99.90;;;;;;4986292;28;116953;-81
2023/08/04 04:09:53;;;;;;;16.48;8.45;;;13.20;99.90;;;;;;4995804;28;87888;-81
2023/08/04 04:13:10;;;;;;;;;;;;;;;;;;;;;
2023/08/04 04:15:49;;;;;;;21.35;8.43;;;13.30;99.90;;;;;;4964060;28;121973;-83
2023/08/04 04:18:33;;;;;;;;;;;;;;;;;;;;;
2023/08/04 04:21:18;;;;;;;16.40;7.30;;;13.30;99.90;;;;;;4999548;28;110474;-81
2023/08/04 04:23:57;;;;;;;13.27;6.13;;;13.30;99.90;;;;;;5003577;28;88666;-81
2023/08/04 04:26:24;;;;;;;19.50;7.72;;;13.40;99.90;;;;;;4986423;28;90209;-82
2023/08/04 04:32:05;;;;;;;18.52;7.15;;;13.40;99.90;;;;;;4994142;28;87388;-81
2023/08/04 04:41:09;;;;;;;15.73;7.43;;;13.60;99.90;;;;;;4973842;28;91820;-82
2023/08/04 04:43:55;;;;;;;16.90;7.85;;;13.60;99.90;;;;;;4940772;28;87047;-82
2023/08/04 04:49:44;;;;;;;16.48;6.93;;;13.70;99.90;;;;;;4982054;28;90051;-81
2023/08/04 04:52:28;;;;;;;16.48;7.55;;;13.60;99.90;;;;;;4993381;28;90761;-82
2023/08/04 04:54:59;;;;;;;17.88;7.28;;;13.60;99.90;;;;;;4988936;28;87543;-82
2023/08/04 04:57:25;;;;;;;14.27;7.68;;;13.70;99.90;;;;;;5004545;28;89534;-82
2023/08/04 04:59:51;;;;;;;19.00;8.38;;;13.70;99.90;;;;;;4986515;28;92123;-81
2023/08/04 05:02:17;;;;;;;26.83;7.82;;;13.70;99.90;;;;;;4980594;28;93993;-81
2023/08/04 05:04:44;;;;;;;16.67;6.75;;;13.80;99.90;;;;;;4980422;28;88789;-81
2023/08/04 05:07:10;;;;;;;15.55;6.57;;;13.80;99.90;;;;;;4982771;28;90120;-81
2023/08/04 05:09:36;;;;;;;14.55;6.90;;;13.90;99.90;;;;;;4983982;28;90621;-82
2023/08/04 05:12:01;;;;;;;17.80;7.10;;;13.90;99.90;;;;;;4984221;28;88772;-81
2023/08/04 05:14:27;;;;;;;17.77;7.25;;;13.90;99.90;;;;;;4984026;28;90012;-81
2023/08/04 05:16:53;;;;;;;15.55;6.95;;;14.00;99.90;;;;;;4984295;28;89054;-81
2023/08/04 05:19:18;;;;;;;17.10;6.90;;;14.00;99.90;;;;;;4983763;28;91555;-81
2023/08/04 05:21:44;;;;;;;14.13;6.60;;;14.00;99.90;;;;;;4984354;28;91706;-81
2023/08/04 05:24:10;;;;;;;18.13;6.78;;;14.10;99.90;;;;;;4983696;28;87927;-81
2023/08/04 05:26:36;;;;;;;13.30;6.65;;;14.10;99.90;;;;;;4982982;28;90421;-81
2023/08/04 05:29:02;;;;;;;18.05;7.82;;;14.20;99.90;;;;;;4981166;28;92449;-81
2023/08/04 05:31:27;;;;;;;15.80;7.30;;;14.20;99.90;;;;;;4982359;28;87565;-81
2023/08/04 05:33:56;;;;;;;18.05;7.22;;;14.20;99.90;;;;;;4981922;28;87720;-81
2023/08/04 05:36:24;;;;;;;15.43;7.15;;;14.30;99.90;;;;;;4982131;28;89142;-80
2023/08/04 05:38:50;;;;;;;16.65;7.18;;;14.30;99.90;;;;;;4980915;28;91796;-81
2023/08/04 05:41:15;;;;;;;20.00;7.72;;;14.40;99.90;;;;;;4980623;28;91947;-81
2023/08/04 05:44:11;;;;;;;17.15;7.25;;;14.40;99.90;;;;;;4978158;28;87587;-81
2023/08/04 05:47:04;;;;;;;16.50;6.93;;;14.40;99.90;;;;;;4974661;28;89319;-81
2023/08/04 05:52:18;;;;;;;14.95;6.55;;;14.60;99.90;;;;;;5145310;22;87654;-91
2023/08/04 05:55:07;;;;;;;12.18;7.18;;;14.60;99.90;;;;;;4979668;28;88072;-92
2023/08/04 05:57:47;;;;;;;15.60;7.40;;;14.70;99.90;;;;;;4935732;28;92652;-92
2023/08/04 06:00:36;;;;;;;18.92;7.18;;;14.80;99.90;;;;;;4987140;28;87011;-92
2023/08/04 06:03:45;;;;;;;15.35;6.05;;;14.80;99.90;;;;;;4995191;28;86752;-89
2023/08/04 06:06:20;;;;;;;16.65;6.95;;;14.90;99.90;;;;;;4990265;28;86375;-93
2023/08/04 06:09:05;;;;;;;12.55;6.90;;;15.00;99.90;;;;;;5001425;28;86296;-88
2023/08/04 06:11:55;;;;;;;16.13;6.38;;;15.00;99.90;;;;;;4979655;28;87784;-91
2023/08/04 06:14:21;;;;;;;15.88;6.25;;;15.10;99.90;;;;;;4984708;28;87629;-82
2023/08/04 06:16:49;;;;;;;14.23;5.88;;;15.10;99.90;;;;;;5003065;27;87264;-91
2023/08/04 06:19:18;;;;;;;15.25;6.88;;;15.20;99.90;;;;;;4978247;28;86489;-89
2023/08/04 06:21:47;;;;;;;17.35;6.35;;;15.30;99.90;;;;;;4999049;28;88072;-90
2023/08/04 06:24:36;;;;;;;19.60;6.47;;;15.30;99.90;;;;;;4983558;28;88892;-88
2023/08/04 06:27:09;;;;;;;14.00;5.82;;;15.40;99.90;;;;;;4997913;28;86483;-89
2023/08/04 06:29:39;;;;;;;;;;;15.50;99.90;;;;;;4983503;28;86522;-91
2023/08/04 06:32:07;;;;;;;12.80;6.90;;;15.50;99.90;;;;;;4971322;28;88341;-90
2023/08/04 06:34:41;;;;;;;10.60;6.03;;;15.60;99.90;;;;;;4995191;28;88278;-89
2023/08/04 06:37:07;;;;;;;14.65;6.32;;;15.60;99.90;;;;;;4993715;28;86624;-94
2023/08/04 06:39:36;;;;;;;15.32;6.03;;;15.60;99.90;;;;;;4978903;28;86062;-93
2023/08/04 06:42:08;;;;;;;20.15;6.55;;;15.70;99.90;;;;;;4993540;28;87055;-91
2023/08/04 06:47:24;;;;;;;13.05;6.03;;;15.80;99.90;;;;;;4985727;28;88513;-82
2023/08/04 10:11:38;;;;;;;3.75;1.52;;;21.30;89.00;;;;;;4952058;28;87159;-82
2023/08/04 10:18:08;;;;;;;5.35;1.70;;;20.70;86.90;;;;;;4888251;28;86852;-82
2023/08/04 10:21:11;;;;;;;2.58;1.10;;;20.10;90.00;;;;;;4869216;28;87419;-82
2023/08/04 10:24:07;;;;;;;1.42;0.65;;;19.60;90.60;;;;;;4860089;28;88103;-80
2023/08/04 10:30:00;;;;;;;1.27;0.70;;;19.00;91.60;;;;;;5028306;22;87564;-83
2023/08/04 10:45:07;;;;;;;3.88;1.70;;;18.70;94.70;;;;;;4998936;28;87980;-81
2023/08/04 10:48:12;;;;;;;;;;;18.70;95.50;;;;;;4986530;28;87261;-81
2023/08/04 10:50:44;;;;;;;;;;;18.80;95.60;;;;;;5002562;28;90723;-82
2023/08/04 11:04:04;;;;;;;5.35;2.10;;;19.40;95.20;;;;;;5004816;22;88207;-81
2023/08/04 11:16:52;;;;;;;3.63;2.22;;;19.90;94.20;;;;;;4958411;28;90488;-82
2023/08/04 11:20:08;;;;;;;4.88;2.72;;;19.90;93.20;;;;;;4967085;28;88032;-82
2023/08/04 11:23:17;;;;;;;3.03;1.95;;;20.10;93.00;;;;;;4895919;28;86380;-81
2023/08/04 11:26:03;;;;;;;;;;;;;;;;;;;;;
2023/08/04 11:28:34;;;;;;;3.72;2.17;;;20.40;92.10;;;;;;4955023;28;117269;-81
2023/08/04 11:31:24;;;;;;;5.05;1.88;;;20.60;92.00;;;;;;4958639;28;86936;-81
2023/08/04 11:34:21;;;;;;;;;;;;;;;;;;;;;
2023/08/04 11:36:50;;;;;;;3.85;2.28;;;20.80;90.60;;;;;;4942607;28;121371;-82
2023/08/04 11:39:19;;;;;;;4.43;1.70;;;20.80;91.30;;;;;;4963411;28;89967;-81
2023/08/04 11:41:53;;;;;;;3.85;1.92;;;21.00;90.80;;;;;;4976139;28;86694;-82
2023/08/04 11:44:26;;;;;;;4.72;2.10;;;21.10;91.10;;;;;;4971520;28;88200;-81
2023/08/04 11:46:56;;;;;;;4.50;1.92;;;21.20;90.80;;;;;;4965986;28;88108;-81
2023/08/04 11:49:24;;;;;;;3.95;2.22;;;21.40;89.00;;;;;;4938769;28;92036;-81
2023/08/04 11:51:50;;;;;;;3.75;2.17;;;21.40;89.00;;;;;;4963725;28;87688;-81
2023/08/04 11:54:18;;;;;;;3.03;1.77;;;21.50;88.60;;;;;;4959523;28;90077;-80
2023/08/04 11:56:43;;;;;;;5.43;1.90;;;21.50;90.00;;;;;;4943716;28;90372;-80
2023/08/04 11:59:10;;;;;;;3.65;1.65;;;21.60;88.60;;;;;;4957292;28;87419;-80
2023/08/04 12:01:40;;;;;;;4.07;1.60;;;21.70;88.10;;;;;;4957890;28;87118;-80
2023/08/04 12:04:29;;;;;;;5.97;1.58;;;21.70;88.30;;;;;;4943823;28;86739;-82
2023/08/04 12:07:03;;;;;;;7.60;1.27;;;21.80;88.80;;;;;;4964759;28;87122;-81
2023/08/04 12:09:30;;;;;;;4.78;1.83;;;22.00;87.50;;;;;;4964182;28;92839;-80
2023/08/04 12:11:56;;;;;;;1.67;1.30;;;22.00;87.30;;;;;;4964120;28;88113;-81
2023/08/04 12:14:22;;;;;;;3.28;1.65;;;22.10;87.80;;;;;;4964957;28;87157;-80
2023/08/04 12:16:50;;;;;;;3.67;1.45;;;22.30;86.30;;;;;;4972242;28;89217;-81
2023/08/04 12:19:16;;;;;;;2.63;1.30;;;22.50;85.20;;;;;;4966149;28;88064;-80
2023/08/04 12:21:44;;;;;;;3.88;1.40;;;22.70;86.70;;;;;;4961841;28;87672;-81
2023/08/04 12:24:11;;;;;;;3.78;1.70;;;23.00;83.60;;;;;;4926940;28;89134;-80
2023/08/04 12:26:42;;;;;;;2.92;1.50;;;23.00;83.20;;;;;;4967353;28;87769;-80
2023/08/04 12:29:10;;;;;;;4.25;1.60;;;23.10;83.50;;;;;;4964988;28;87617;-80
2023/08/04 12:31:38;;;;;;;4.20;1.80;;;23.10;81.80;;;;;;4941609;28;87163;-80
2023/08/04 12:34:05;;;;;;;3.78;1.73;;;23.20;81.40;;;;;;4965909;28;90369;-81
2023/08/04 12:56:38;;;;;;;4.38;1.50;;;23.40;78.60;;;;;;5029869;22;86571;-85
2023/08/04 12:59:04;;;;;;;4.22;1.20;;;23.50;80.80;;;;;;5002049;28;89504;-86
2023/08/04 13:01:38;;;;;;;1.23;0.63;;;23.70;75.60;;;;;;4985060;28;90162;-84
2023/08/04 13:04:04;;;;;;;2.05;1.00;;;24.00;77.90;;;;;;4986621;28;89250;-88
2023/08/04 13:06:32;;;;;;;3.30;0.80;;;24.40;78.40;;;;;;4987383;28;87666;-88
2023/08/04 13:09:01;;;;;;;2.58;0.50;;;24.70;79.10;;;;;;5004197;28;90477;-87
2023/08/04 13:11:26;;;;;;;5.53;0.73;;;25.20;77.70;;;;;;4982783;28;91864;-86
2023/08/04 13:13:52;;;;;;;1.85;0.70;;;25.40;72.30;;;;;;5002324;28;88990;-88
2023/08/04 13:16:21;;;;;;;1.42;0.60;;;25.70;75.90;;;;;;5004680;28;88990;-83
2023/08/04 13:18:51;;;;;;;4.28;1.15;;;26.00;74.40;;;;;;5004316;28;90587;-84
2023/08/04 13:21:17;;;;;;;1.98;0.82;;;26.30;73.40;;;;;;4979263;28;90034;-86
2023/08/04 13:23:43;;;;;;;2.60;0.95;;;26.40;70.20;;;;;;5000635;28;87544;-87
2023/08/04 13:26:11;;;;;;;1.13;0.60;;;26.40;69.60;;;;;;4985237;28;88510;-86
2023/08/04 13:28:40;;;;;;;2.58;0.90;;;26.60;68.70;;;;;;5002867;28;92374;-88
2023/08/04 13:31:06;;;;;;;3.28;1.05;;;26.90;66.50;;;;;;4989770;28;91510;-87
2023/08/04 13:33:32;;;;;;;3.17;0.90;;;27.10;70.20;;;;;;4988174;28;87512;-87
2023/08/04 13:36:00;;;;;;;2.05;0.80;;;27.40;67.70;;;;;;5005920;28;89743;-87
2023/08/04 13:38:26;;;;;;;4.10;0.70;;;27.60;68.70;;;;;;4986280;28;90059;-86
2023/08/04 13:40:52;;;;;;;4.35;0.77;;;27.80;68.10;;;;;;4986575;28;96585;-85
2023/08/04 13:43:18;;;;;;;3.72;0.90;;;27.90;66.70;;;;;;4997844;28;87699;-85
2023/08/04 13:45:43;;;;;;;4.05;0.57;;;27.80;64.70;;;;;;4987941;28;90104;-88
2023/08/04 13:48:09;;;;;;;1.98;0.68;;;27.70;67.10;;;;;;5006768;28;89547;-85
2023/08/04 13:50:38;;;;;;;3.10;1.00;;;27.60;67.40;;;;;;5002222;28;90555;-87
2023/08/04 13:53:04;;;;;;;5.50;1.00;;;27.40;64.90;;;;;;5002864;28;88507;-87
2023/08/04 13:55:34;;;;;;;1.88;0.80;;;27.10;68.20;;;;;;5003790;28;90427;-91
2023/08/04 13:58:00;;;;;;;5.47;1.02;;;26.90;66.80;;;;;;5005078;28;90203;-87
2023/08/04 14:00:36;;;;;;;3.28;0.93;;;26.40;64.20;;;;;;5004115;28;91109;-88
2023/08/04 14:03:02;;;;;;;1.83;0.63;;;26.00;71.10;;;;;;5003015;28;93237;-87
2023/08/04 14:05:28;;;;;;;0.80;0.55;;;25.90;70.10;;;;;;5005474;28;89219;-89
2023/08/04 14:07:54;;;;;;;2.75;0.60;;;25.80;71.90;;;;;;4987173;28;89036;-87
2023/08/04 14:10:21;;;;;;;4.90;0.80;;;25.90;71.80;;;;;;4986422;28;90390;-87
2023/08/04 14:12:47;;;;;;;3.30;0.65;;;26.00;74.20;;;;;;4988515;28;87092;-90
2023/08/04 14:15:21;;;;;;;3.08;0.55;;;26.10;70.80;;;;;;4987925;28;88908;-87
2023/08/04 14:17:47;;;;;;;1.63;0.60;;;26.40;68.40;;;;;;5005140;28;89477;-92
2023/08/04 14:20:20;;;;;;;3.05;0.73;;;26.60;64.30;;;;;;4986490;28;90656;-92
2023/08/04 14:22:55;;;;;;;1.90;0.52;;;26.90;61.90;;;;;;5004762;28;87245;-85
2023/08/04 14:25:21;;;;;;;1.85;0.60;;;26.90;60.30;;;;;;4986242;28;88560;-86
2023/08/04 14:27:46;;;;;;;2.08;0.50;;;27.00;61.80;;;;;;5008666;28;90103;-86
2023/08/04 14:30:12;;;;;;;1.58;0.50;;;27.40;65.60;;;;;;5005860;28;89916;-88
2023/08/04 14:32:41;;;;;;;4.03;0.68;;;27.70;62.20;;;;;;5006323;28;88008;-89
2023/08/04 14:35:07;;;;;;;2.10;0.52;;;27.90;56.20;;;;;;5001998;28;89337;-89
2023/08/04 14:37:33;;;;;;;1.52;0.40;;;28.10;58.80;;;;;;5002236;28;90546;-86
2023/08/04 14:39:59;;;;;;;1.45;0.73;;;28.20;55.40;;;;;;4987481;28;89824;-83
2023/08/04 14:42:25;;;;;;;3.20;0.63;;;28.50;57.60;;;;;;4983961;28;88347;-87
2023/08/04 14:44:51;;;;;;;2.65;0.60;;;28.70;55.10;;;;;;5001388;28;88929;-86
2023/08/04 14:47:17;;;;;;;2.42;0.60;;;28.90;55.80;;;;;;5003540;28;91755;-87
2023/08/04 14:49:42;;;;;;;1.40;0.55;;;29.20;54.20;;;;;;5002168;28;91302;-85
2023/08/04 14:52:10;;;;;;;1.10;0.60;;;29.40;55.70;;;;;;4987151;28;87708;-84
2023/08/04 14:54:37;;;;;;;2.05;0.70;;;29.60;56.40;;;;;;5002394;28;87916;-84
2023/08/04 14:57:03;;;;;;;0.68;0.45;;;29.80;55.10;;;;;;5000071;28;90377;-85
2023/08/04 14:59:29;;;;;;;1.00;0.55;;;29.80;55.40;;;;;;4985921;28;90080;-86
2023/08/04 15:01:55;;;;;;;1.08;0.40;;;29.60;55.20;;;;;;5001869;28;87861;-86
2023/08/04 15:04:21;;;;;;;1.88;0.50;;;29.30;54.80;;;;;;4986208;28;88903;-86
2023/08/04 15:06:47;;;;;;;1.08;0.73;;;29.00;54.70;;;;;;5000034;28;92189;-86
2023/08/04 15:09:12;;;;;;;2.05;0.80;;;28.70;53.00;;;;;;4999875;28;92346;-86
2023/08/04 15:11:38;;;;;;;1.08;0.55;;;28.20;53.60;;;;;;5001672;28;87536;-85
2023/08/04 15:14:04;;;;;;;3.40;0.73;;;27.70;55.20;;;;;;4986057;28;89300;-84
2023/08/04 15:16:30;;;;;;;2.15;0.77;;;27.40;57.10;;;;;;4985506;28;91828;-90
2023/08/04 15:18:55;;;;;;;0.57;0.50;;;27.10;56.50;;;;;;4988514;28;90405;-87
2023/08/04 15:21:21;;;;;;;2.25;0.65;;;26.70;58.10;;;;;;4985706;28;87413;-85
2023/08/04 15:23:47;;;;;;;1.83;0.70;;;26.50;59.20;;;;;;5002017;28;90793;-85
2023/08/04 15:26:14;;;;;;;1.55;0.40;;;26.50;61.90;;;;;;4986889;28;88551;-88
2023/08/04 15:28:40;;;;;;;4.00;0.63;;;26.60;59.70;;;;;;5003230;28;90531;-88
2023/08/04 15:31:07;;;;;;;1.90;0.55;;;26.70;60.30;;;;;;5002403;28;88560;-88
2023/08/04 15:33:35;;;;;;;0.70;0.50;;;27.10;61.10;;;;;;5004528;28;88469;-87
2023/08/04 15:36:03;;;;;;;1.58;0.40;;;27.40;58.10;;;;;;4988142;28;87813;-88
2023/08/04 15:38:28;;;;;;;0.98;0.50;;;27.70;57.40;;;;;;4991411;28;91539;-90
2023/08/04 15:41:06;;;;;;;3.40;0.60;;;27.80;58.60;;;;;;4998158;28;87546;-89
2023/08/04 15:43:33;;;;;;;1.90;0.50;;;28.10;57.70;;;;;;4988082;28;87603;-83
2023/08/04 15:46:11;;;;;;;1.88;0.40;;;28.30;54.90;;;;;;5001542;28;89901;-86
2023/08/04 15:48:38;;;;;;;3.22;0.90;;;28.00;53.70;;;;;;4982020;28;93636;-85
2023/08/04 15:51:05;;;;;;;1.13;0.40;;;27.60;56.90;;;;;;4987188;28;87560;-94
2023/08/04 15:53:31;;;;;;;0.50;0.40;;;27.40;56.10;;;;;;5001054;28;87200;-84
2023/08/04 15:55:57;;;;;;;3.08;0.50;;;27.50;54.80;;;;;;4988173;28;92141;-88
2023/08/04 15:58:32;;;;;;;1.15;0.40;;;27.40;54.70;;;;;;5004384;28;90745;-89
2023/08/04 16:01:00;;;;;;;1.23;0.40;;;27.40;57.40;;;;;;5003937;28;87852;-86
2023/08/04 16:03:29;;;;;;;0.50;0.40;;;27.40;52.90;;;;;;5001978;28;88528;-88
2023/08/04 16:06:01;;;;;;;1.13;0.50;;;27.40;53.60;;;;;;5003556;28;89496;-88
2023/08/04 16:08:30;;;;;;;3.33;0.50;;;27.40;54.70;;;;;;4998967;28;87878;-85
2023/08/04 16:11:08;;;;;;;0.88;0.40;;;27.30;53.90;;;;;;5003223;28;87399;-85
2023/08/04 16:13:34;;;;;;;0.60;0.38;;;27.40;54.70;;;;;;5001847;28;90744;-87
2023/08/04 16:16:08;;;;;;;0.60;0.45;;;27.50;52.80;;;;;;4993660;28;91821;-86
2023/08/04 16:18:36;;;;;;;0.63;0.40;;;27.50;53.00;;;;;;4987359;28;93913;-88
2023/08/04 16:21:03;;;;;;;1.15;0.40;;;27.50;52.60;;;;;;5001803;28;88489;-86
2023/08/04 16:23:30;;;;;;;1.15;0.40;;;27.50;53.70;;;;;;4985273;28;89010;-86
2023/08/04 16:25:55;;;;;;;0.52;0.38;;;27.60;53.50;;;;;;5000142;28;90370;-87
2023/08/04 16:28:21;;;;;;;0.50;0.30;;;27.80;52.50;;;;;;4984168;28;91298;-88
2023/08/04 16:30:47;;;;;;;1.83;0.50;;;27.90;51.90;;;;;;4999196;28;87714;-87
2023/08/04 16:33:15;;;;;;;0.60;0.60;;;28.30;50.20;;;;;;4985169;28;89085;-86
2023/08/04 16:35:42;;;;;;;1.48;0.60;;;28.60;52.30;;;;;;5000884;28;90523;-87
2023/08/04 16:38:09;;;;;;;2.65;0.47;;;28.90;50.90;;;;;;5001332;28;90029;-86
2023/08/04 16:40:34;;;;;;;1.10;0.45;;;29.30;49.40;;;;;;5000241;28;87571;-84
2023/08/04 16:43:00;;;;;;;1.77;0.50;;;29.50;49.90;;;;;;5001714;28;89129;-84
2023/08/04 16:45:26;;;;;;;3.13;0.73;;;29.70;49.90;;;;;;4999487;28;91302;-85
2023/08/04 16:47:51;;;;;;;5.35;0.68;;;29.90;50.00;;;;;;5001344;28;91144;-84
2023/08/04 16:50:17;;;;;;;1.73;0.80;;;30.00;49.60;;;;;;4999517;28;87764;-86
2023/08/04 16:52:44;;;;;;;1.83;0.60;;;29.90;50.40;;;;;;5004935;28;89204;-84
2023/08/04 16:55:10;;;;;;;2.30;0.50;;;29.90;49.50;;;;;;4984864;28;89555;-84
2023/08/04 16:57:38;;;;;;;3.17;0.90;;;29.70;50.00;;;;;;5000471;28;90286;-86
2023/08/04 17:00:05;;;;;;;1.52;0.50;;;29.30;50.30;;;;;;4995539;28;87717;-87
2023/08/04 17:02:31;;;;;;;1.13;0.68;;;28.90;50.80;;;;;;4995250;28;89150;-86
2023/08/04 17:04:57;;;;;;;1.17;0.50;;;28.50;51.50;;;;;;4994096;28;90205;-86
2023/08/04 17:07:23;;;;;;;2.83;0.75;;;28.20;52.70;;;;;;5004029;28;89198;-85
2023/08/04 17:17:55;;;;;;;;;;;;;;;;;;;;;
2023/08/04 17:20:13;;;;;;;1.90;0.85;;;26.60;57.70;;;;;;4990997;28;88062;-87
2023/08/04 17:26:26;;;;;;;;;;;;;;;;;;;;;
2023/08/04 17:32:03;;;;;;;1.73;0.77;;;26.90;57.00;;;;;;4916415;28;89642;-84
2023/08/04 17:34:31;;;;;;;1.67;0.60;;;27.50;54.60;;;;;;4921834;28;87845;-84
2023/08/04 17:37:04;;;;;;;1.65;0.55;;;27.70;53.50;;;;;;4959634;28;90320;-84
2023/08/04 17:39:32;;;;;;;1.08;0.50;;;27.60;54.00;;;;;;5001777;28;96721;-87
2023/08/04 17:42:01;;;;;;;2.22;0.60;;;27.70;53.70;;;;;;4985914;28;92315;-86
2023/08/04 17:44:30;;;;;;;2.30;0.73;;;27.70;53.80;;;;;;5000772;28;87517;-84
2023/08/04 17:47:01;;;;;;;3.03;0.65;;;27.50;54.70;;;;;;4995039;28;89598;-89
2023/08/04 17:49:30;;;;;;;1.23;0.60;;;27.40;55.20;;;;;;4992193;28;89781;-87
2023/08/04 17:52:02;;;;;;;1.58;0.70;;;27.10;55.50;;;;;;4988658;28;89137;-87
2023/08/04 17:54:30;;;;;;;2.25;0.90;;;26.80;56.50;;;;;;4985467;28;87896;-85
2023/08/04 17:56:59;;;;;;;1.20;0.70;;;26.70;55.80;;;;;;5002876;28;89263;-85
2023/08/04 17:59:25;;;;;;;2.05;0.85;;;26.60;57.20;;;;;;4988624;28;91698;-85